sensor_id;sensor_type;location;lat;lon;timestamp;temperature;humidity
53962;DHT22;39868;53.398;6.564;2023-08-07T00:02:25;19.50;78.20
53962;DHT22;39868;53.398;6.564;2023-08-07T00:04:53;19.50;78.20
53962;DHT22;39868;53.398;6.564;2023-08-07T00:07:20;19.50;78.30
53962;DHT22;39868;53.398;6.564;2023-08-07T00:09:47;19.50;78.30
53962;DHT22;39868;53.398;6.564;2023-08-07T00:12:14;19.50;78.40
53962;DHT22;39868;53.398;6.564;2023-08-07T00:14:41;19.50;78.30
53962;DHT22;39868;53.398;6.564;2023-08-07T00:17:08;19.50;78.40
53962;DHT22;39868;53.398;6.564;2023-08-07T00:19:35;19.50;78.70
53962;DHT22;39868;53.398;6.564;2023-08-07T00:22:02;19.50;78.70
53962;DHT22;39868;53.398;6.564;2023-08-07T00:24:30;19.50;79.10
53962;DHT22;39868;53.398;6.564;2023-08-07T00:26:57;19.50;79.20
53962;DHT22;39868;53.398;6.564;2023-08-07T00:29:24;19.40;79.30
53962;DHT22;39868;53.398;6.564;2023-08-07T00:31:51;19.30;79.00
53962;DHT22;39868;53.398;6.564;2023-08-07T00:34:18;19.20;79.10
53962;DHT22;39868;53.398;6.564;2023-08-07T00:36:46;19.10;79.30
53962;DHT22;39868;53.398;6.564;2023-08-07T00:39:13;19.00;79.20
53962;DHT22;39868;53.398;6.564;2023-08-07T00:41:40;18.90;79.30
53962;DHT22;39868;53.398;6.564;2023-08-07T00:44:08;18.90;79.50
53962;DHT22;39868;53.398;6.564;2023-08-07T00:46:35;18.80;79.70
53962;DHT22;39868;53.398;6.564;2023-08-07T00:49:02;18.80;79.80
53962;DHT22;39868;53.398;6.564;2023-08-07T00:51:32;18.70;79.90
53962;DHT22;39868;53.398;6.564;2023-08-07T00:54:00;18.70;80.10
53962;DHT22;39868;53.398;6.564;2023-08-07T00:56:29;18.70;80.00
53962;DHT22;39868;53.398;6.564;2023-08-07T00:58:57;18.60;80.10
53962;DHT22;39868;53.398;6.564;2023-08-07T01:01:25;18.60;80.30
53962;DHT22;39868;53.398;6.564;2023-08-07T01:03:52;18.60;81.00
53962;DHT22;39868;53.398;6.564;2023-08-07T01:06:19;18.60;81.70
53962;DHT22;39868;53.398;6.564;2023-08-07T01:08:47;18.60;82.00
53962;DHT22;39868;53.398;6.564;2023-08-07T01:19:03;18.50;82.30
53962;DHT22;39868;53.398;6.564;2023-08-07T01:21:32;18.50;82.60
53962;DHT22;39868;53.398;6.564;2023-08-07T01:23:59;18.50;82.30
53962;DHT22;39868;53.398;6.564;2023-08-07T01:26:26;18.50;82.50
53962;DHT22;39868;53.398;6.564;2023-08-07T01:29:17;18.50;82.50
53962;DHT22;39868;53.398;6.564;2023-08-07T01:31:40;18.50;82.50
53962;DHT22;39868;53.398;6.564;2023-08-07T01:34:08;18.50;82.60
53962;DHT22;39868;53.398;6.564;2023-08-07T01:36:38;18.50;82.80
53962;DHT22;39868;53.398;6.564;2023-08-07T01:39:06;18.50;83.10
53962;DHT22;39868;53.398;6.564;2023-08-07T01:41:36;18.50;83.20
53962;DHT22;39868;53.398;6.564;2023-08-07T01:44:03;18.50;82.90
53962;DHT22;39868;53.398;6.564;2023-08-07T01:46:30;18.50;83.00
53962;DHT22;39868;53.398;6.564;2023-08-07T01:48:58;18.50;82.90
53962;DHT22;39868;53.398;6.564;2023-08-07T01:51:25;18.50;82.80
53962;DHT22;39868;53.398;6.564;2023-08-07T01:53:52;18.50;83.00
53962;DHT22;39868;53.398;6.564;2023-08-07T01:56:20;18.50;83.10
53962;DHT22;39868;53.398;6.564;2023-08-07T01:58:47;18.50;83.00
53962;DHT22;39868;53.398;6.564;2023-08-07T02:01:14;18.50;83.00
53962;DHT22;39868;53.398;6.564;2023-08-07T02:03:41;18.50;83.00
53962;DHT22;39868;53.398;6.564;2023-08-07T02:06:08;18.60;83.00
53962;DHT22;39868;53.398;6.564;2023-08-07T02:08:36;18.60;83.00
53962;DHT22;39868;53.398;6.564;2023-08-07T02:11:03;18.60;83.00
53962;DHT22;39868;53.398;6.564;2023-08-07T02:13:30;18.60;83.00
53962;DHT22;39868;53.398;6.564;2023-08-07T02:15:57;18.60;83.00
53962;DHT22;39868;53.398;6.564;2023-08-07T02:18:24;18.70;83.10
53962;DHT22;39868;53.398;6.564;2023-08-07T02:20:51;18.70;83.00
53962;DHT22;39868;53.398;6.564;2023-08-07T02:23:18;18.70;83.00
53962;DHT22;39868;53.398;6.564;2023-08-07T02:25:46;18.70;82.90
53962;DHT22;39868;53.398;6.564;2023-08-07T02:28:13;18.70;82.80
53962;DHT22;39868;53.398;6.564;2023-08-07T02:30:40;18.70;82.70
53962;DHT22;39868;53.398;6.564;2023-08-07T02:33:07;18.70;82.60
53962;DHT22;39868;53.398;6.564;2023-08-07T02:35:35;18.60;82.40
53962;DHT22;39868;53.398;6.564;2023-08-07T02:38:02;18.60;82.40
53962;DHT22;39868;53.398;6.564;2023-08-07T02:40:29;18.60;82.30
53962;DHT22;39868;53.398;6.564;2023-08-07T02:42:57;18.60;82.30
53962;DHT22;39868;53.398;6.564;2023-08-07T02:45:24;18.50;82.20
53962;DHT22;39868;53.398;6.564;2023-08-07T02:47:51;18.50;82.30
53962;DHT22;39868;53.398;6.564;2023-08-07T02:50:18;18.50;82.30
53962;DHT22;39868;53.398;6.564;2023-08-07T02:52:45;18.50;82.40
53962;DHT22;39868;53.398;6.564;2023-08-07T02:55:13;18.50;82.40
53962;DHT22;39868;53.398;6.564;2023-08-07T02:57:40;18.50;82.50
53962;DHT22;39868;53.398;6.564;2023-08-07T03:00:07;18.50;82.50
53962;DHT22;39868;53.398;6.564;2023-08-07T03:02:35;18.50;82.50
53962;DHT22;39868;53.398;6.564;2023-08-07T03:05:02;18.50;82.50
53962;DHT22;39868;53.398;6.564;2023-08-07T03:07:29;18.50;82.60
53962;DHT22;39868;53.398;6.564;2023-08-07T03:09:57;18.50;82.60
53962;DHT22;39868;53.398;6.564;2023-08-07T03:12:24;18.50;82.70
53962;DHT22;39868;53.398;6.564;2023-08-07T03:14:51;18.50;82.60
53962;DHT22;39868;53.398;6.564;2023-08-07T03:17:18;18.50;83.10
53962;DHT22;39868;53.398;6.564;2023-08-07T03:19:47;18.50;82.50
53962;DHT22;39868;53.398;6.564;2023-08-07T03:22:16;18.40;82.40
53962;DHT22;39868;53.398;6.564;2023-08-07T03:24:47;18.40;82.40
53962;DHT22;39868;53.398;6.564;2023-08-07T03:27:15;18.40;82.50
53962;DHT22;39868;53.398;6.564;2023-08-07T03:29:42;18.40;82.50
53962;DHT22;39868;53.398;6.564;2023-08-07T03:32:12;18.40;82.50
53962;DHT22;39868;53.398;6.564;2023-08-07T03:34:39;18.40;82.70
53962;DHT22;39868;53.398;6.564;2023-08-07T03:37:07;18.40;82.90
53962;DHT22;39868;53.398;6.564;2023-08-07T03:39:34;18.40;82.90
53962;DHT22;39868;53.398;6.564;2023-08-07T03:42:01;18.40;82.90
53962;DHT22;39868;53.398;6.564;2023-08-07T03:44:29;18.40;82.80
53962;DHT22;39868;53.398;6.564;2023-08-07T03:46:56;18.30;82.70
53962;DHT22;39868;53.398;6.564;2023-08-07T03:49:24;18.30;82.60
53962;DHT22;39868;53.398;6.564;2023-08-07T03:51:53;18.20;82.40
53962;DHT22;39868;53.398;6.564;2023-08-07T03:54:20;18.20;82.40
53962;DHT22;39868;53.398;6.564;2023-08-07T03:56:47;18.20;82.40
53962;DHT22;39868;53.398;6.564;2023-08-07T03:59:15;18.10;82.50
53962;DHT22;39868;53.398;6.564;2023-08-07T04:01:42;18.10;82.60
53962;DHT22;39868;53.398;6.564;2023-08-07T04:04:09;18.00;82.70
53962;DHT22;39868;53.398;6.564;2023-08-07T04:06:36;18.00;82.80
53962;DHT22;39868;53.398;6.564;2023-08-07T04:09:04;18.00;82.90
53962;DHT22;39868;53.398;6.564;2023-08-07T04:11:31;17.90;82.90
53962;DHT22;39868;53.398;6.564;2023-08-07T04:14:00;17.90;83.00
53962;DHT22;39868;53.398;6.564;2023-08-07T04:16:27;17.80;83.00
53962;DHT22;39868;53.398;6.564;2023-08-07T04:18:54;17.80;83.10
53962;DHT22;39868;53.398;6.564;2023-08-07T04:21:21;17.80;83.20
53962;DHT22;39868;53.398;6.564;2023-08-07T04:23:48;17.80;83.30
53962;DHT22;39868;53.398;6.564;2023-08-07T04:26:15;17.70;83.30
53962;DHT22;39868;53.398;6.564;2023-08-07T04:28:42;17.80;83.30
53962;DHT22;39868;53.398;6.564;2023-08-07T04:31:10;17.70;83.40
53962;DHT22;39868;53.398;6.564;2023-08-07T04:33:37;17.70;83.50
53962;DHT22;39868;53.398;6.564;2023-08-07T04:36:04;17.70;83.70
53962;DHT22;39868;53.398;6.564;2023-08-07T04:38:32;17.70;83.80
53962;DHT22;39868;53.398;6.564;2023-08-07T04:40:59;17.70;84.00
53962;DHT22;39868;53.398;6.564;2023-08-07T04:43:26;17.70;84.20
53962;DHT22;39868;53.398;6.564;2023-08-07T04:45:54;17.70;84.10
53962;DHT22;39868;53.398;6.564;2023-08-07T04:48:21;17.70;84.20
53962;DHT22;39868;53.398;6.564;2023-08-07T04:50:51;17.70;84.20
53962;DHT22;39868;53.398;6.564;2023-08-07T04:53:19;17.70;84.20
53962;DHT22;39868;53.398;6.564;2023-08-07T04:55:46;17.80;84.20
53962;DHT22;39868;53.398;6.564;2023-08-07T04:58:13;17.80;84.20
53962;DHT22;39868;53.398;6.564;2023-08-07T05:00:40;17.80;84.20
53962;DHT22;39868;53.398;6.564;2023-08-07T05:03:07;17.80;84.10
53962;DHT22;39868;53.398;6.564;2023-08-07T05:05:34;17.80;84.10
53962;DHT22;39868;53.398;6.564;2023-08-07T05:08:01;17.80;84.10
53962;DHT22;39868;53.398;6.564;2023-08-07T05:10:29;17.70;83.90
53962;DHT22;39868;53.398;6.564;2023-08-07T05:12:56;17.70;83.80
53962;DHT22;39868;53.398;6.564;2023-08-07T05:15:23;17.70;83.70
53962;DHT22;39868;53.398;6.564;2023-08-07T05:17:51;17.70;83.60
53962;DHT22;39868;53.398;6.564;2023-08-07T05:20:18;17.70;83.60
53962;DHT22;39868;53.398;6.564;2023-08-07T05:22:45;17.60;83.50
53962;DHT22;39868;53.398;6.564;2023-08-07T05:25:13;17.60;83.50
53962;DHT22;39868;53.398;6.564;2023-08-07T05:27:43;17.60;83.50
53962;DHT22;39868;53.398;6.564;2023-08-07T05:30:11;17.60;83.60
53962;DHT22;39868;53.398;6.564;2023-08-07T05:32:38;17.60;83.70
53962;DHT22;39868;53.398;6.564;2023-08-07T05:35:06;17.70;83.70
53962;DHT22;39868;53.398;6.564;2023-08-07T05:37:33;17.70;83.80
53962;DHT22;39868;53.398;6.564;2023-08-07T05:40:01;17.70;83.80
53962;DHT22;39868;53.398;6.564;2023-08-07T05:42:28;17.80;83.80
53962;DHT22;39868;53.398;6.564;2023-08-07T05:44:55;17.80;83.70
53962;DHT22;39868;53.398;6.564;2023-08-07T05:47:22;17.80;83.60
53962;DHT22;39868;53.398;6.564;2023-08-07T05:49:50;17.80;83.60
53962;DHT22;39868;53.398;6.564;2023-08-07T05:52:17;17.80;83.50
53962;DHT22;39868;53.398;6.564;2023-08-07T05:54:44;17.80;83.60
53962;DHT22;39868;53.398;6.564;2023-08-07T05:57:11;17.80;83.60
53962;DHT22;39868;53.398;6.564;2023-08-07T05:59:39;17.80;83.60
53962;DHT22;39868;53.398;6.564;2023-08-07T06:02:07;17.80;83.60
53962;DHT22;39868;53.398;6.564;2023-08-07T06:04:34;17.80;83.60
53962;DHT22;39868;53.398;6.564;2023-08-07T06:07:01;17.80;83.60
53962;DHT22;39868;53.398;6.564;2023-08-07T06:09:28;17.80;83.70
53962;DHT22;39868;53.398;6.564;2023-08-07T06:11:55;17.90;83.80
53962;DHT22;39868;53.398;6.564;2023-08-07T06:14:23;17.90;84.30
53962;DHT22;39868;53.398;6.564;2023-08-07T06:16:52;17.90;83.80
53962;DHT22;39868;53.398;6.564;2023-08-07T06:19:19;18.00;83.70
53962;DHT22;39868;53.398;6.564;2023-08-07T06:21:58;18.00;83.60
53962;DHT22;39868;53.398;6.564;2023-08-07T06:24:25;18.00;83.50
53962;DHT22;39868;53.398;6.564;2023-08-07T06:26:53;18.00;83.40
53962;DHT22;39868;53.398;6.564;2023-08-07T06:29:20;18.10;83.40
53962;DHT22;39868;53.398;6.564;2023-08-07T06:31:47;18.10;83.40
53962;DHT22;39868;53.398;6.564;2023-08-07T06:34:14;18.20;83.30
53962;DHT22;39868;53.398;6.564;2023-08-07T06:36:41;18.20;83.20
53962;DHT22;39868;53.398;6.564;2023-08-07T06:39:08;18.20;83.20
53962;DHT22;39868;53.398;6.564;2023-08-07T06:41:37;18.30;83.30
53962;DHT22;39868;53.398;6.564;2023-08-07T06:44:04;18.30;83.20
53962;DHT22;39868;53.398;6.564;2023-08-07T06:46:31;18.30;83.00
53962;DHT22;39868;53.398;6.564;2023-08-07T06:48:58;18.40;82.90
53962;DHT22;39868;53.398;6.564;2023-08-07T06:51:25;18.40;82.60
53962;DHT22;39868;53.398;6.564;2023-08-07T06:53:52;18.40;82.50
53962;DHT22;39868;53.398;6.564;2023-08-07T06:56:19;18.40;82.30
53962;DHT22;39868;53.398;6.564;2023-08-07T06:58:47;18.40;82.20
53962;DHT22;39868;53.398;6.564;2023-08-07T07:01:14;18.40;81.70
53962;DHT22;39868;53.398;6.564;2023-08-07T07:03:41;18.40;81.10
53962;DHT22;39868;53.398;6.564;2023-08-07T07:06:09;18.40;80.60
53962;DHT22;39868;53.398;6.564;2023-08-07T07:08:36;18.40;80.00
53962;DHT22;39868;53.398;6.564;2023-08-07T07:11:03;18.40;79.80
53962;DHT22;39868;53.398;6.564;2023-08-07T07:13:31;18.40;79.90
53962;DHT22;39868;53.398;6.564;2023-08-07T07:15:58;18.40;79.80
53962;DHT22;39868;53.398;6.564;2023-08-07T07:18:26;18.40;79.50
53962;DHT22;39868;53.398;6.564;2023-08-07T07:20:57;18.50;79.40
53962;DHT22;39868;53.398;6.564;2023-08-07T07:23:25;18.50;79.40
53962;DHT22;39868;53.398;6.564;2023-08-07T07:25:52;18.50;78.10
53962;DHT22;39868;53.398;6.564;2023-08-07T07:28:20;18.50;78.30
53962;DHT22;39868;53.398;6.564;2023-08-07T07:30:47;18.50;77.60
53962;DHT22;39868;53.398;6.564;2023-08-07T07:33:14;18.60;78.00
53962;DHT22;39868;53.398;6.564;2023-08-07T07:35:44;18.60;76.70
53962;DHT22;39868;53.398;6.564;2023-08-07T07:38:12;18.60;76.80
53962;DHT22;39868;53.398;6.564;2023-08-07T07:40:39;18.60;76.90
53962;DHT22;39868;53.398;6.564;2023-08-07T07:43:06;18.70;76.60
53962;DHT22;39868;53.398;6.564;2023-08-07T07:45:33;18.70;76.60
53962;DHT22;39868;53.398;6.564;2023-08-07T07:48:03;18.70;77.00
53962;DHT22;39868;53.398;6.564;2023-08-07T07:50:30;18.80;76.80
53962;DHT22;39868;53.398;6.564;2023-08-07T07:52:57;18.80;77.00
53962;DHT22;39868;53.398;6.564;2023-08-07T07:55:25;18.80;76.80
53962;DHT22;39868;53.398;6.564;2023-08-07T07:57:53;18.80;76.30
53962;DHT22;39868;53.398;6.564;2023-08-07T08:00:20;18.80;76.50
53962;DHT22;39868;53.398;6.564;2023-08-07T08:02:49;18.80;76.40
53962;DHT22;39868;53.398;6.564;2023-08-07T08:05:16;18.80;76.00
53962;DHT22;39868;53.398;6.564;2023-08-07T08:07:44;18.80;75.70
53962;DHT22;39868;53.398;6.564;2023-08-07T08:10:11;18.80;75.60
53962;DHT22;39868;53.398;6.564;2023-08-07T08:12:40;18.90;75.80
53962;DHT22;39868;53.398;6.564;2023-08-07T08:15:07;18.90;76.00
53962;DHT22;39868;53.398;6.564;2023-08-07T08:17:34;18.90;75.90
53962;DHT22;39868;53.398;6.564;2023-08-07T08:20:02;19.00;74.40
53962;DHT22;39868;53.398;6.564;2023-08-07T08:22:29;19.00;75.70
53962;DHT22;39868;53.398;6.564;2023-08-07T08:24:56;19.00;75.30
53962;DHT22;39868;53.398;6.564;2023-08-07T08:27:23;19.10;75.10
53962;DHT22;39868;53.398;6.564;2023-08-07T08:29:52;19.10;75.40
53962;DHT22;39868;53.398;6.564;2023-08-07T08:32:19;19.20;75.90
53962;DHT22;39868;53.398;6.564;2023-08-07T08:34:47;19.30;76.20
53962;DHT22;39868;53.398;6.564;2023-08-07T08:37:17;19.30;76.10
53962;DHT22;39868;53.398;6.564;2023-08-07T08:39:44;19.40;76.00
53962;DHT22;39868;53.398;6.564;2023-08-07T08:42:11;19.40;75.80
53962;DHT22;39868;53.398;6.564;2023-08-07T08:44:40;19.40;75.70
53962;DHT22;39868;53.398;6.564;2023-08-07T08:47:07;19.40;74.80
53962;DHT22;39868;53.398;6.564;2023-08-07T08:49:36;19.40;74.50
53962;DHT22;39868;53.398;6.564;2023-08-07T08:52:04;19.40;74.70
53962;DHT22;39868;53.398;6.564;2023-08-07T08:54:32;19.40;75.10
53962;DHT22;39868;53.398;6.564;2023-08-07T08:56:59;19.30;74.20
53962;DHT22;39868;53.398;6.564;2023-08-07T08:59:26;19.30;74.30
53962;DHT22;39868;53.398;6.564;2023-08-07T09:01:54;19.20;74.20
53962;DHT22;39868;53.398;6.564;2023-08-07T09:04:22;19.10;74.20
53962;DHT22;39868;53.398;6.564;2023-08-07T09:06:49;19.00;74.20
53962;DHT22;39868;53.398;6.564;2023-08-07T09:09:19;18.90;74.30
53962;DHT22;39868;53.398;6.564;2023-08-07T09:11:47;18.80;74.30
53962;DHT22;39868;53.398;6.564;2023-08-07T09:14:20;18.70;74.30
53962;DHT22;39868;53.398;6.564;2023-08-07T09:16:50;18.60;74.40
53962;DHT22;39868;53.398;6.564;2023-08-07T09:19:17;18.60;74.10
53962;DHT22;39868;53.398;6.564;2023-08-07T09:21:45;18.60;74.00
53962;DHT22;39868;53.398;6.564;2023-08-07T09:24:12;18.60;73.80
53962;DHT22;39868;53.398;6.564;2023-08-07T09:26:41;18.70;73.60
53962;DHT22;39868;53.398;6.564;2023-08-07T09:29:09;18.80;74.10
53962;DHT22;39868;53.398;6.564;2023-08-07T09:31:37;18.90;73.30
53962;DHT22;39868;53.398;6.564;2023-08-07T09:34:04;19.00;73.10
53962;DHT22;39868;53.398;6.564;2023-08-07T09:36:32;19.10;73.30
53962;DHT22;39868;53.398;6.564;2023-08-07T09:39:03;19.20;72.10
53962;DHT22;39868;53.398;6.564;2023-08-07T09:41:30;19.30;71.70
53962;DHT22;39868;53.398;6.564;2023-08-07T09:43:57;19.40;71.10
53962;DHT22;39868;53.398;6.564;2023-08-07T09:46:25;19.40;71.30
53962;DHT22;39868;53.398;6.564;2023-08-07T09:48:52;19.50;71.40
53962;DHT22;39868;53.398;6.564;2023-08-07T09:51:24;19.50;70.80
53962;DHT22;39868;53.398;6.564;2023-08-07T09:53:51;19.40;71.30
53962;DHT22;39868;53.398;6.564;2023-08-07T09:56:18;19.40;71.40
53962;DHT22;39868;53.398;6.564;2023-08-07T09:58:48;19.40;70.80
53962;DHT22;39868;53.398;6.564;2023-08-07T10:01:16;19.30;69.90
53962;DHT22;39868;53.398;6.564;2023-08-07T10:03:44;19.30;70.30
53962;DHT22;39868;53.398;6.564;2023-08-07T10:06:12;19.30;70.00
53962;DHT22;39868;53.398;6.564;2023-08-07T10:08:39;19.20;69.70
53962;DHT22;39868;53.398;6.564;2023-08-07T10:11:07;19.20;69.80
53962;DHT22;39868;53.398;6.564;2023-08-07T10:13:36;19.20;70.50
53962;DHT22;39868;53.398;6.564;2023-08-07T10:16:06;19.10;71.00
53962;DHT22;39868;53.398;6.564;2023-08-07T10:18:33;19.10;71.20
53962;DHT22;39868;53.398;6.564;2023-08-07T10:21:01;19.10;71.50
53962;DHT22;39868;53.398;6.564;2023-08-07T10:23:29;19.10;71.60
53962;DHT22;39868;53.398;6.564;2023-08-07T10:25:56;19.00;71.70
53962;DHT22;39868;53.398;6.564;2023-08-07T10:28:24;19.00;71.80
53962;DHT22;39868;53.398;6.564;2023-08-07T10:30:55;19.00;71.90
53962;DHT22;39868;53.398;6.564;2023-08-07T10:33:23;19.00;72.10
53962;DHT22;39868;53.398;6.564;2023-08-07T10:35:51;19.00;72.70
53962;DHT22;39868;53.398;6.564;2023-08-07T10:38:19;19.00;72.20
53962;DHT22;39868;53.398;6.564;2023-08-07T10:40:58;19.00;72.00
53962;DHT22;39868;53.398;6.564;2023-08-07T10:43:26;19.10;71.70
53962;DHT22;39868;53.398;6.564;2023-08-07T10:46:00;19.10;71.10
53962;DHT22;39868;53.398;6.564;2023-08-07T10:48:29;19.10;71.00
53962;DHT22;39868;53.398;6.564;2023-08-07T10:50:57;19.30;70.60
53962;DHT22;39868;53.398;6.564;2023-08-07T10:55:54;19.50;69.40
53962;DHT22;39868;53.398;6.564;2023-08-07T10:58:25;19.60;69.90
53962;DHT22;39868;53.398;6.564;2023-08-07T11:01:14;19.60;68.90
53962;DHT22;39868;53.398;6.564;2023-08-07T11:03:42;19.80;69.00
53962;DHT22;39868;53.398;6.564;2023-08-07T11:06:10;19.90;69.30
53962;DHT22;39868;53.398;6.564;2023-08-07T11:08:37;20.00;68.80
53962;DHT22;39868;53.398;6.564;2023-08-07T11:11:05;20.10;68.80
53962;DHT22;39868;53.398;6.564;2023-08-07T11:13:33;20.10;69.00
53962;DHT22;39868;53.398;6.564;2023-08-07T11:16:03;20.20;68.60
53962;DHT22;39868;53.398;6.564;2023-08-07T11:18:31;20.20;68.70
53962;DHT22;39868;53.398;6.564;2023-08-07T11:20:59;20.20;68.30
53962;DHT22;39868;53.398;6.564;2023-08-07T11:23:28;20.10;68.40
53962;DHT22;39868;53.398;6.564;2023-08-07T11:25:55;20.10;67.80
53962;DHT22;39868;53.398;6.564;2023-08-07T11:28:23;20.10;67.60
53962;DHT22;39868;53.398;6.564;2023-08-07T11:30:51;20.10;67.90
53962;DHT22;39868;53.398;6.564;2023-08-07T11:33:19;20.10;68.10
53962;DHT22;39868;53.398;6.564;2023-08-07T11:35:47;20.10;68.10
53962;DHT22;39868;53.398;6.564;2023-08-07T11:38:33;20.20;68.60
53962;DHT22;39868;53.398;6.564;2023-08-07T11:41:04;20.20;69.00
53962;DHT22;39868;53.398;6.564;2023-08-07T11:43:33;20.30;68.00
53962;DHT22;39868;53.398;6.564;2023-08-07T11:46:01;20.30;68.00
53962;DHT22;39868;53.398;6.564;2023-08-07T11:48:30;20.40;68.40
53962;DHT22;39868;53.398;6.564;2023-08-07T11:50:57;20.40;68.60
53962;DHT22;39868;53.398;6.564;2023-08-07T11:53:25;20.40;68.70
53962;DHT22;39868;53.398;6.564;2023-08-07T11:56:00;20.50;68.80
53962;DHT22;39868;53.398;6.564;2023-08-07T11:58:33;20.60;69.30
53962;DHT22;39868;53.398;6.564;2023-08-07T12:01:03;20.60;69.50
53962;DHT22;39868;53.398;6.564;2023-08-07T12:03:32;20.60;69.00
53962;DHT22;39868;53.398;6.564;2023-08-07T12:06:01;20.70;68.60
53962;DHT22;39868;53.398;6.564;2023-08-07T12:08:36;20.70;68.30
53962;DHT22;39868;53.398;6.564;2023-08-07T12:11:04;20.70;68.40
53962;DHT22;39868;53.398;6.564;2023-08-07T12:13:32;20.70;68.60
53962;DHT22;39868;53.398;6.564;2023-08-07T12:16:02;20.60;68.60
53962;DHT22;39868;53.398;6.564;2023-08-07T12:18:32;20.60;68.70
53962;DHT22;39868;53.398;6.564;2023-08-07T12:21:00;20.60;69.30
53962;DHT22;39868;53.398;6.564;2023-08-07T12:23:27;20.60;69.50
53962;DHT22;39868;53.398;6.564;2023-08-07T12:25:55;20.70;69.60
53962;DHT22;39868;53.398;6.564;2023-08-07T12:28:22;20.70;69.60
53962;DHT22;39868;53.398;6.564;2023-08-07T12:30:50;20.80;69.60
53962;DHT22;39868;53.398;6.564;2023-08-07T12:33:17;20.80;69.10
53962;DHT22;39868;53.398;6.564;2023-08-07T12:35:45;20.80;69.90
53962;DHT22;39868;53.398;6.564;2023-08-07T12:38:12;20.90;69.40
53962;DHT22;39868;53.398;6.564;2023-08-07T12:40:42;21.00;69.10
53962;DHT22;39868;53.398;6.564;2023-08-07T12:43:10;21.00;68.40
53962;DHT22;39868;53.398;6.564;2023-08-07T12:45:37;21.00;68.30
53962;DHT22;39868;53.398;6.564;2023-08-07T12:48:08;21.10;68.10
53962;DHT22;39868;53.398;6.564;2023-08-07T12:50:35;21.00;67.60
53962;DHT22;39868;53.398;6.564;2023-08-07T12:53:02;21.00;67.90
53962;DHT22;39868;53.398;6.564;2023-08-07T12:55:30;21.00;68.00
53962;DHT22;39868;53.398;6.564;2023-08-07T12:57:57;20.90;68.30
53962;DHT22;39868;53.398;6.564;2023-08-07T13:00:25;20.90;68.50
53962;DHT22;39868;53.398;6.564;2023-08-07T13:02:53;20.90;68.70
53962;DHT22;39868;53.398;6.564;2023-08-07T13:05:21;20.90;68.60
53962;DHT22;39868;53.398;6.564;2023-08-07T13:07:49;20.90;68.40
53962;DHT22;39868;53.398;6.564;2023-08-07T13:10:19;20.90;68.40
53962;DHT22;39868;53.398;6.564;2023-08-07T13:12:47;20.80;68.50
53962;DHT22;39868;53.398;6.564;2023-08-07T13:15:15;20.80;68.70
53962;DHT22;39868;53.398;6.564;2023-08-07T13:17:43;20.70;69.10
53962;DHT22;39868;53.398;6.564;2023-08-07T13:20:11;20.70;69.50
53962;DHT22;39868;53.398;6.564;2023-08-07T13:22:43;20.60;69.80
53962;DHT22;39868;53.398;6.564;2023-08-07T13:25:11;20.60;69.80
53962;DHT22;39868;53.398;6.564;2023-08-07T13:27:39;20.50;69.30
53962;DHT22;39868;53.398;6.564;2023-08-07T13:30:06;20.50;69.20
53962;DHT22;39868;53.398;6.564;2023-08-07T13:32:34;20.40;69.00
53962;DHT22;39868;53.398;6.564;2023-08-07T13:35:01;20.40;69.00
53962;DHT22;39868;53.398;6.564;2023-08-07T13:37:29;20.40;69.20
53962;DHT22;39868;53.398;6.564;2023-08-07T13:39:56;20.30;69.60
53962;DHT22;39868;53.398;6.564;2023-08-07T13:42:24;20.30;69.10
53962;DHT22;39868;53.398;6.564;2023-08-07T13:44:52;20.30;69.30
53962;DHT22;39868;53.398;6.564;2023-08-07T13:47:19;20.30;69.30
53962;DHT22;39868;53.398;6.564;2023-08-07T13:49:48;20.20;69.00
53962;DHT22;39868;53.398;6.564;2023-08-07T13:52:15;20.20;69.00
53962;DHT22;39868;53.398;6.564;2023-08-07T13:54:46;20.20;68.70
53962;DHT22;39868;53.398;6.564;2023-08-07T13:57:16;20.20;68.60
53962;DHT22;39868;53.398;6.564;2023-08-07T13:59:44;20.10;68.60
53962;DHT22;39868;53.398;6.564;2023-08-07T14:02:11;20.10;68.40
53962;DHT22;39868;53.398;6.564;2023-08-07T14:04:38;20.10;68.80
53962;DHT22;39868;53.398;6.564;2023-08-07T14:07:06;20.10;68.50
53962;DHT22;39868;53.398;6.564;2023-08-07T14:09:33;20.10;68.70
53962;DHT22;39868;53.398;6.564;2023-08-07T14:12:00;20.20;68.60
53962;DHT22;39868;53.398;6.564;2023-08-07T14:14:27;20.20;68.60
53962;DHT22;39868;53.398;6.564;2023-08-07T14:16:54;20.30;68.20
53962;DHT22;39868;53.398;6.564;2023-08-07T14:19:24;20.40;67.60
53962;DHT22;39868;53.398;6.564;2023-08-07T14:21:51;20.40;67.40
53962;DHT22;39868;53.398;6.564;2023-08-07T14:24:18;20.50;67.40
53962;DHT22;39868;53.398;6.564;2023-08-07T14:26:45;20.50;67.30
53962;DHT22;39868;53.398;6.564;2023-08-07T14:29:13;20.50;67.40
53962;DHT22;39868;53.398;6.564;2023-08-07T14:31:40;20.50;67.30
53962;DHT22;39868;53.398;6.564;2023-08-07T14:34:07;20.50;67.30
53962;DHT22;39868;53.398;6.564;2023-08-07T14:36:35;20.50;66.60
53962;DHT22;39868;53.398;6.564;2023-08-07T14:39:02;20.50;66.30
53962;DHT22;39868;53.398;6.564;2023-08-07T14:41:29;20.50;66.40
53962;DHT22;39868;53.398;6.564;2023-08-07T14:43:56;20.50;65.80
53962;DHT22;39868;53.398;6.564;2023-08-07T14:46:24;20.40;65.20
53962;DHT22;39868;53.398;6.564;2023-08-07T14:48:51;20.40;65.30
53962;DHT22;39868;53.398;6.564;2023-08-07T14:51:18;20.30;65.80
53962;DHT22;39868;53.398;6.564;2023-08-07T14:53:45;20.30;65.90
53962;DHT22;39868;53.398;6.564;2023-08-07T14:56:12;20.40;66.10
53962;DHT22;39868;53.398;6.564;2023-08-07T14:58:40;20.30;66.20
53962;DHT22;39868;53.398;6.564;2023-08-07T15:01:07;20.40;65.50
53962;DHT22;39868;53.398;6.564;2023-08-07T15:03:34;20.60;64.50
53962;DHT22;39868;53.398;6.564;2023-08-07T15:06:01;20.60;65.20
53962;DHT22;39868;53.398;6.564;2023-08-07T15:08:28;20.70;64.80
53962;DHT22;39868;53.398;6.564;2023-08-07T15:10:55;20.80;65.20
53962;DHT22;39868;53.398;6.564;2023-08-07T15:13:23;21.00;65.20
53962;DHT22;39868;53.398;6.564;2023-08-07T15:15:50;21.10;64.80
53962;DHT22;39868;53.398;6.564;2023-08-07T15:18:17;21.20;64.50
53962;DHT22;39868;53.398;6.564;2023-08-07T15:20:46;21.10;64.00
53962;DHT22;39868;53.398;6.564;2023-08-07T15:23:13;21.20;64.00
53962;DHT22;39868;53.398;6.564;2023-08-07T15:25:40;21.20;64.00
53962;DHT22;39868;53.398;6.564;2023-08-07T15:28:09;21.20;64.00
53962;DHT22;39868;53.398;6.564;2023-08-07T15:30:36;21.20;63.70
53962;DHT22;39868;53.398;6.564;2023-08-07T15:33:03;21.20;63.00
53962;DHT22;39868;53.398;6.564;2023-08-07T15:35:30;21.10;62.90
53962;DHT22;39868;53.398;6.564;2023-08-07T15:37:58;21.00;62.80
53962;DHT22;39868;53.398;6.564;2023-08-07T15:40:27;20.90;62.20
53962;DHT22;39868;53.398;6.564;2023-08-07T15:42:54;20.80;62.80
53962;DHT22;39868;53.398;6.564;2023-08-07T15:45:21;20.70;63.20